Terminal Aerodrome Forecast
Issued by NWS

Home | Current Version | Previous Version | Text Only | Print | Product List | Glossary On
Versions: 1 2 3 4 5 6 7 8 9 10 11 12 13 14 15 16 17 18 19 20 21 22 23 24 25 26 27 28
000
FTUS46 KOTX 302325
TAFCOE
TAF
KCOE 302325Z 3100/3124 23010G16KT P6SM SCT060 BKN100 BKN200
     FM310300 21008KT P6SM VCSH SCT060 BKN100
      AMD LTD TO CLD AND VIS=

USA.gov is the U.S. government's official web portal to all federal, state and local government web resources and services.